Time;durP1;ratioP1;P1;durP2;ratioP2;P2;SDS_P1;SDS_P2;PMS_P1;PMS_P2;Temp;Humidity;BMP_temperature;BMP_pressure;BME280_temperature;BME280_humidity;BME280_pressure;Samples;Min_cycle;Max_cycle;Signal;HPM_P1;HPM_P2
2021/01/01 00:00:15;;;;;;;0.32;0.30;;;13.90;68.00;;;;;;5040781;28;20482;-74
2021/01/01 00:02:47;;;;;;;0.75;0.43;;;13.90;68.00;;;;;;5057228;28;20437;-74
2021/01/01 00:05:20;;;;;;;0.90;0.40;;;13.90;68.00;;;;;;5054715;28;20036;-73
2021/01/01 00:07:50;;;;;;;0.40;0.40;;;13.90;68.00;;;;;;5055985;28;20037;-73
2021/01/01 00:10:16;;;;;;;0.30;0.30;;;13.90;68.00;;;;;;5055675;28;20071;-73
2021/01/01 00:12:44;;;;;;;0.40;0.40;;;13.90;68.00;;;;;;5049199;28;20021;-73
2021/01/01 00:15:11;;;;;;;0.50;0.50;;;13.90;68.00;;;;;;5051986;28;20033;-73
2021/01/01 00:17:37;;;;;;;0.50;0.50;;;13.90;68.00;;;;;;5055675;28;20063;-73
2021/01/01 00:20:05;;;;;;;0.88;0.45;;;13.90;68.00;;;;;;5054627;28;20021;-73
2021/01/01 00:22:34;;;;;;;0.50;0.50;;;13.90;68.10;;;;;;5047606;28;20032;-75
2021/01/01 00:25:00;;;;;;;0.40;0.40;;;13.90;68.10;;;;;;5052304;28;20033;-73
2021/01/01 00:27:41;;;;;;;0.38;0.38;;;13.90;68.00;;;;;;5055482;28;20059;-75
2021/01/01 00:30:13;;;;;;;0.38;0.30;;;13.90;68.00;;;;;;5038237;28;20032;-76
2021/01/01 00:32:42;;;;;;;0.50;0.50;;;13.80;68.00;;;;;;5041095;28;20500;-74
2021/01/01 00:35:21;;;;;;;0.38;0.38;;;13.90;68.10;;;;;;5055169;28;20037;-74
2021/01/01 00:37:54;;;;;;;0.30;0.30;;;13.90;68.10;;;;;;5034399;28;20384;-74
2021/01/01 00:40:33;;;;;;;0.50;0.40;;;13.90;68.10;;;;;;5054636;28;20033;-74
2021/01/01 00:43:02;;;;;;;0.50;0.50;;;13.90;68.10;;;;;;5050824;28;20067;-73
2021/01/01 00:45:34;;;;;;;1.10;0.40;;;13.90;68.10;;;;;;5049471;28;20505;-74
2021/01/01 00:48:20;;;;;;;0.68;0.50;;;13.90;68.10;;;;;;5055025;28;20029;-74
2021/01/01 00:50:55;;;;;;;0.30;0.30;;;13.90;68.10;;;;;;5052924;28;20044;-74
2021/01/01 00:53:46;;;;;;;0.40;0.40;;;13.80;68.20;;;;;;5047733;28;20060;-74
2021/01/01 00:56:30;;;;;;;0.93;0.50;;;13.90;68.20;;;;;;5050630;28;20029;-74
2021/01/01 00:59:10;;;;;;;0.50;0.40;;;13.80;68.20;;;;;;5044845;28;20039;-75
2021/01/01 01:01:41;;;;;;;1.38;0.73;;;13.80;68.20;;;;;;5052109;28;20059;-74
2021/01/01 01:04:45;;;;;;;;;;;;;;;;;;;;;
2021/01/01 01:07:08;;;;;;;1.58;0.60;;;13.90;68.20;;;;;;5046992;28;20124;-74
2021/01/01 01:09:39;;;;;;;0.85;0.50;;;13.90;68.20;;;;;;5050166;28;20036;-76
2021/01/01 01:12:20;;;;;;;0.65;0.60;;;13.90;68.20;;;;;;5054009;28;20131;-74
2021/01/01 01:15:07;;;;;;;0.60;0.60;;;13.90;68.20;;;;;;5054896;28;20086;-76
2021/01/01 01:17:56;;;;;;;0.30;0.20;;;13.80;68.20;;;;;;5034108;28;20503;-73
2021/01/01 01:21:02;;;;;;;0.57;0.40;;;13.80;68.20;;;;;;5053500;28;20036;-74
2021/01/01 01:23:42;;;;;;;0.15;0.15;;;13.80;68.20;;;;;;5053176;28;20117;-74
2021/01/01 01:26:08;;;;;;;1.15;0.65;;;13.90;68.20;;;;;;5053361;28;20032;-74
2021/01/01 01:28:38;;;;;;;0.50;0.40;;;13.80;68.20;;;;;;5054042;28;20454;-74
2021/01/01 01:31:25;;;;;;;1.00;0.60;;;13.90;68.20;;;;;;5050829;28;20223;-74
2021/01/01 01:34:03;;;;;;;0.45;0.40;;;13.80;68.20;;;;;;5049738;28;20025;-74
2021/01/01 01:36:34;;;;;;;;;;;13.80;68.20;;;;;;5049047;28;20437;-74
2021/01/01 01:39:03;;;;;;;0.82;0.60;;;13.80;68.20;;;;;;5043842;28;19909;-74
2021/01/01 01:41:43;;;;;;;1.08;0.70;;;13.80;68.20;;;;;;5050710;28;20025;-74
2021/01/01 01:44:12;;;;;;;0.93;0.60;;;13.80;68.30;;;;;;5054290;28;20032;-74
2021/01/01 01:46:57;;;;;;;0.45;0.40;;;13.80;68.20;;;;;;5034794;28;20033;-74
2021/01/01 01:49:28;;;;;;;0.88;0.40;;;13.80;68.20;;;;;;5053399;28;20021;-74
2021/01/01 01:52:38;;;;;;;;;;;;;;;;;;;;;
2021/01/01 01:55:09;;;;;;;0.75;0.50;;;13.80;68.20;;;;;;5045027;28;20037;-74
2021/01/01 01:57:36;;;;;;;0.30;0.30;;;13.80;68.30;;;;;;5054799;28;20037;-74
2021/01/01 02:03:02;;;;;;;0.60;0.50;;;13.80;68.20;;;;;;5054293;28;20033;-76
2021/01/01 02:05:44;;;;;;;0.47;0.47;;;13.90;68.20;;;;;;5035539;28;20378;-74
2021/01/01 02:08:18;;;;;;;0.70;0.50;;;13.80;68.20;;;;;;5047786;28;20032;-75
2021/01/01 02:10:52;;;;;;;0.60;0.50;;;13.80;68.20;;;;;;5053336;28;20516;-74
2021/01/01 02:13:33;;;;;;;0.57;0.52;;;13.80;68.20;;;;;;5051650;28;20068;-74
2021/01/01 02:16:04;;;;;;;0.40;0.32;;;13.80;68.30;;;;;;5040714;28;20037;-74
2021/01/01 02:18:41;;;;;;;1.52;0.65;;;13.80;68.20;;;;;;5051006;28;20446;-75
2021/01/01 02:21:36;;;;;;;0.30;0.30;;;13.80;68.30;;;;;;5049654;28;20021;-75
2021/01/01 02:24:07;;;;;;;0.63;0.47;;;13.80;68.30;;;;;;5050394;28;20036;-74
2021/01/01 02:26:45;;;;;;;0.60;0.60;;;13.80;68.30;;;;;;5036207;28;20041;-74
2021/01/01 02:29:42;;;;;;;0.70;0.40;;;13.80;68.30;;;;;;5049455;28;20031;-74
2021/01/01 02:32:44;;;;;;;;;;;;;;;;;;;;;
2021/01/01 02:35:18;;;;;;;1.17;0.50;;;13.80;68.30;;;;;;5053461;28;20032;-74
2021/01/01 02:37:54;;;;;;;0.40;0.40;;;13.80;68.30;;;;;;5056346;28;20416;-74
2021/01/01 02:40:37;;;;;;;0.65;0.45;;;13.80;68.30;;;;;;5036029;28;20120;-74
2021/01/01 02:43:08;;;;;;;0.40;0.40;;;13.80;68.30;;;;;;5050020;28;20032;-74
2021/01/01 02:45:36;;;;;;;1.58;0.70;;;13.80;68.30;;;;;;5035258;28;20052;-74
2021/01/01 02:48:17;;;;;;;;;;;13.80;68.30;;;;;;5034864;28;20074;-74
2021/01/01 02:50:55;;;;;;;0.47;0.47;;;13.80;68.30;;;;;;5030316;28;20051;-74
2021/01/01 02:53:28;;;;;;;0.40;0.40;;;13.80;68.30;;;;;;5049875;28;20493;-74
2021/01/01 02:56:09;;;;;;;1.08;0.60;;;13.80;68.30;;;;;;5049399;28;20497;-74
2021/01/01 02:58:39;;;;;;;0.35;0.35;;;13.80;68.30;;;;;;5051397;28;20029;-77
2021/01/01 03:01:24;;;;;;;0.50;0.50;;;13.80;68.30;;;;;;5032293;28;20489;-74
2021/01/01 03:03:57;;;;;;;0.52;0.43;;;13.80;68.30;;;;;;5045785;28;20039;-74
2021/01/01 03:06:42;;;;;;;0.55;0.45;;;13.80;68.30;;;;;;5043650;28;20041;-74
2021/01/01 03:09:12;;;;;;;0.70;0.40;;;13.80;68.30;;;;;;5015073;28;20021;-74
2021/01/01 03:11:52;;;;;;;0.75;0.60;;;13.80;68.30;;;;;;5022224;28;21545;-74
2021/01/01 03:14:17;;;;;;;0.73;0.43;;;13.80;68.30;;;;;;5031562;28;20079;-74
2021/01/01 03:16:48;;;;;;;0.47;0.40;;;13.80;68.30;;;;;;5031534;28;20036;-74
2021/01/01 03:19:28;;;;;;;0.63;0.60;;;13.80;68.30;;;;;;5034031;28;20083;-73
2021/01/01 03:22:07;;;;;;;0.70;0.63;;;13.80;68.30;;;;;;5033776;28;20466;-74
2021/01/01 03:24:53;;;;;;;0.28;0.28;;;13.80;68.30;;;;;;5029077;28;20029;-74
2021/01/01 03:27:24;;;;;;;0.70;0.50;;;13.80;68.30;;;;;;5035199;28;20116;-74
2021/01/01 03:30:02;;;;;;;0.80;0.50;;;13.80;68.30;;;;;;5035441;28;20021;-74
2021/01/01 03:32:34;;;;;;;1.23;0.80;;;13.80;68.30;;;;;;5034315;28;20029;-74
2021/01/01 03:35:06;;;;;;;0.55;0.50;;;13.80;68.30;;;;;;5027721;28;20029;-74
2021/01/01 03:37:37;;;;;;;0.75;0.43;;;13.80;68.30;;;;;;5015375;28;20666;-74
2021/01/01 03:40:16;;;;;;;0.77;0.50;;;13.80;68.30;;;;;;5028912;28;20033;-74
2021/01/01 03:42:49;;;;;;;1.45;0.65;;;13.80;68.30;;;;;;5036444;28;20025;-74
2021/01/01 03:45:29;;;;;;;0.60;0.50;;;13.80;68.30;;;;;;5034828;28;20026;-74
2021/01/01 03:48:11;;;;;;;0.57;0.57;;;13.80;68.30;;;;;;5018719;28;20044;-74
2021/01/01 03:50:52;;;;;;;1.00;0.68;;;13.80;68.30;;;;;;5030869;28;20033;-73
2021/01/01 03:53:20;;;;;;;0.45;0.40;;;13.80;68.30;;;;;;5017242;28;20107;-74
2021/01/01 03:56:16;;;;;;;0.68;0.60;;;13.80;68.30;;;;;;5033463;28;20037;-73
2021/01/01 03:58:56;;;;;;;0.55;0.55;;;13.80;68.30;;;;;;5024563;28;20029;-74
2021/01/01 04:01:22;;;;;;;0.52;0.50;;;13.80;68.30;;;;;;5026460;28;20060;-74
2021/01/01 04:04:00;;;;;;;0.30;0.30;;;13.80;68.30;;;;;;5032002;28;20068;-74
2021/01/01 04:06:45;;;;;;;0.90;0.60;;;13.80;68.30;;;;;;5009019;28;20045;-75
2021/01/01 04:09:17;;;;;;;0.40;0.40;;;13.80;68.30;;;;;;5013289;28;20037;-74
2021/01/01 04:11:54;;;;;;;0.60;0.60;;;13.80;68.20;;;;;;5030732;28;20025;-74
2021/01/01 04:14:24;;;;;;;0.57;0.50;;;13.80;68.20;;;;;;5032338;28;20033;-73
2021/01/01 04:17:02;;;;;;;0.45;0.40;;;13.80;68.20;;;;;;5030916;28;20467;-74
2021/01/01 04:19:33;;;;;;;0.82;0.65;;;13.80;68.20;;;;;;5028717;28;20079;-74
2021/01/01 04:22:03;;;;;;;0.60;0.60;;;13.80;68.30;;;;;;5029135;28;20037;-75
2021/01/01 04:24:36;;;;;;;0.90;0.70;;;13.80;68.30;;;;;;5029372;28;20025;-75
2021/01/01 04:27:11;;;;;;;0.73;0.60;;;13.80;68.30;;;;;;5026239;28;20108;-74
2021/01/01 04:29:50;;;;;;;0.52;0.52;;;13.80;68.20;;;;;;5026417;28;20155;-74
2021/01/01 04:32:23;;;;;;;0.57;0.57;;;13.80;68.30;;;;;;5027592;28;20046;-74
2021/01/01 04:34:57;;;;;;;0.65;0.50;;;13.80;68.20;;;;;;5030490;28;20411;-74
2021/01/01 04:37:25;;;;;;;1.05;0.68;;;13.80;68.20;;;;;;5031953;28;20489;-74
2021/01/01 04:40:03;;;;;;;;;;;13.80;68.30;;;;;;5029886;28;20108;-74
2021/01/01 04:42:44;;;;;;;0.77;0.57;;;13.80;68.30;;;;;;5016069;28;19937;-74
2021/01/01 04:45:15;;;;;;;1.00;0.52;;;13.80;68.30;;;;;;5013461;28;20026;-74
2021/01/01 04:48:00;;;;;;;1.13;0.60;;;13.80;68.30;;;;;;5027490;28;20037;-75
2021/01/01 04:50:40;;;;;;;0.40;0.40;;;13.80;68.30;;;;;;5005599;28;20025;-75
2021/01/01 04:53:21;;;;;;;0.60;0.50;;;13.80;68.30;;;;;;5029483;28;20021;-74
2021/01/01 04:56:04;;;;;;;0.60;0.60;;;13.80;68.30;;;;;;5014476;28;20029;-74
2021/01/01 04:58:44;;;;;;;1.60;0.50;;;13.80;68.30;;;;;;5012980;28;20424;-74
2021/01/01 05:01:24;;;;;;;0.88;0.60;;;13.80;68.30;;;;;;5028712;28;20104;-73
2021/01/01 05:04:03;;;;;;;0.65;0.60;;;13.80;68.20;;;;;;5029929;28;20042;-75
2021/01/01 05:06:33;;;;;;;;;;;13.80;68.30;;;;;;5031558;28;20045;-74
2021/01/01 05:09:29;;;;;;;0.65;0.40;;;13.80;68.30;;;;;;5033042;28;19909;-73
2021/01/01 05:12:08;;;;;;;0.80;0.70;;;13.80;68.30;;;;;;5034900;28;20035;-73
2021/01/01 05:15:02;;;;;;;0.88;0.60;;;13.80;68.30;;;;;;5055088;28;20108;-74
2021/01/01 05:17:38;;;;;;;0.65;0.52;;;13.80;68.30;;;;;;5031884;28;20040;-74
2021/01/01 05:20:33;;;;;;;0.95;0.70;;;13.80;68.30;;;;;;5046740;28;20060;-76
2021/01/01 05:23:47;;;;;;;1.13;0.80;;;13.80;68.30;;;;;;5033223;28;20030;-74
2021/01/01 05:26:48;;;;;;;0.60;0.60;;;13.80;68.30;;;;;;5054593;28;20025;-73
2021/01/01 05:29:47;;;;;;;0.40;0.40;;;13.80;68.30;;;;;;5052238;28;20025;-73
2021/01/01 05:32:29;;;;;;;0.73;0.52;;;13.80;68.30;;;;;;5022267;28;20080;-75
2021/01/01 05:35:03;;;;;;;1.13;0.60;;;13.80;68.30;;;;;;5051974;28;20167;-74
2021/01/01 05:38:12;;;;;;;0.60;0.40;;;13.80;68.30;;;;;;5050838;28;20021;-74
2021/01/01 05:40:52;;;;;;;1.08;0.75;;;13.80;68.30;;;;;;5051320;28;20032;-74
2021/01/01 05:43:26;;;;;;;0.80;0.60;;;13.80;68.30;;;;;;5054114;28;20029;-74
2021/01/01 05:46:06;;;;;;;0.70;0.70;;;13.80;68.30;;;;;;5053779;28;20063;-74
2021/01/01 05:48:40;;;;;;;0.55;0.50;;;13.80;68.30;;;;;;5046590;28;20025;-73
2021/01/01 05:51:11;;;;;;;0.85;0.60;;;13.80;68.30;;;;;;5054169;28;20144;-74
2021/01/01 05:53:42;;;;;;;2.05;0.55;;;13.80;68.30;;;;;;5050099;28;20111;-73
2021/01/01 05:56:22;;;;;;;;;;;;;;;;;;;;;
2021/01/01 05:59:10;;;;;;;0.50;0.50;;;13.80;68.30;;;;;;5053349;28;20041;-74
2021/01/01 06:01:51;;;;;;;1.13;0.68;;;13.80;68.30;;;;;;5051537;28;20025;-73
2021/01/01 06:04:26;;;;;;;0.88;0.70;;;13.80;68.30;;;;;;5051110;28;20037;-74
2021/01/01 06:06:57;;;;;;;0.80;0.60;;;13.80;68.20;;;;;;5049514;28;20037;-73
2021/01/01 06:09:36;;;;;;;0.63;0.60;;;13.80;68.20;;;;;;5036165;28;20029;-73
2021/01/01 06:12:08;;;;;;;0.85;0.50;;;13.80;68.30;;;;;;5054245;28;20025;-74
2021/01/01 06:14:47;;;;;;;0.75;0.65;;;13.80;68.20;;;;;;5048062;28;20025;-75
2021/01/01 06:17:39;;;;;;;0.85;0.60;;;13.80;68.20;;;;;;5053898;28;20032;-73
2021/01/01 06:20:26;;;;;;;0.52;0.52;;;13.80;68.20;;;;;;5048690;28;20090;-74
2021/01/01 06:23:07;;;;;;;0.60;0.60;;;13.80;68.20;;;;;;5022284;28;20075;-74
2021/01/01 06:25:54;;;;;;;1.05;0.60;;;13.80;68.30;;;;;;5053252;28;20067;-74
2021/01/01 06:28:20;;;;;;;1.13;0.70;;;13.80;68.30;;;;;;5031187;28;20028;-74
2021/01/01 06:31:01;;;;;;;0.68;0.55;;;13.80;68.30;;;;;;5051727;28;20505;-73
2021/01/01 06:33:35;;;;;;;0.90;0.60;;;13.80;68.30;;;;;;5051688;28;20036;-74
2021/01/01 06:36:29;;;;;;;0.75;0.60;;;13.80;68.30;;;;;;5031147;28;20486;-75
2021/01/01 06:39:02;;;;;;;0.75;0.60;;;13.80;68.30;;;;;;5048721;28;20060;-74
2021/01/01 06:41:48;;;;;;;1.23;0.68;;;13.80;68.30;;;;;;5034051;28;20021;-74
2021/01/01 06:44:34;;;;;;;1.25;0.77;;;13.80;68.30;;;;;;5048543;28;20025;-76
2021/01/01 06:47:26;;;;;;;0.63;0.50;;;13.80;68.30;;;;;;5030790;28;20111;-73
2021/01/01 06:49:57;;;;;;;0.60;0.60;;;13.80;68.30;;;;;;5029192;28;20044;-73
2021/01/01 06:52:28;;;;;;;0.73;0.50;;;13.80;68.30;;;;;;5053831;28;20159;-74
2021/01/01 06:55:03;;;;;;;0.50;0.40;;;13.80;68.30;;;;;;5050037;28;20036;-74
2021/01/01 06:57:31;;;;;;;0.38;0.38;;;13.80;68.30;;;;;;5034372;28;20021;-74
2021/01/01 07:00:15;;;;;;;0.50;0.50;;;13.80;68.30;;;;;;5049275;28;20025;-73
2021/01/01 07:02:54;;;;;;;0.90;0.80;;;13.80;68.30;;;;;;5035984;28;20041;-74
2021/01/01 07:05:31;;;;;;;0.60;0.60;;;13.80;68.30;;;;;;5052788;28;20497;-74
2021/01/01 07:08:31;;;;;;;0.67;0.57;;;13.80;68.30;;;;;;5027080;28;20056;-75
2021/01/01 07:11:01;;;;;;;1.30;0.80;;;13.80;68.30;;;;;;5032449;28;20033;-74
2021/01/01 07:13:49;;;;;;;0.57;0.57;;;13.80;68.30;;;;;;5033233;28;20124;-74
2021/01/01 07:16:20;;;;;;;1.45;0.70;;;13.80;68.30;;;;;;5052385;28;20033;-74
2021/01/01 07:18:51;;;;;;;1.08;0.52;;;13.80;68.30;;;;;;5033644;28;20028;-74
2021/01/01 07:21:20;;;;;;;0.60;0.50;;;13.80;68.30;;;;;;5030979;28;20036;-76
2021/01/01 07:23:49;;;;;;;0.88;0.60;;;13.80;68.30;;;;;;5052053;28;20051;-74
2021/01/01 07:26:18;;;;;;;0.60;0.60;;;13.80;68.30;;;;;;5046479;28;20033;-74
2021/01/01 07:28:48;;;;;;;0.52;0.52;;;13.80;68.30;;;;;;5044464;28;20049;-74
2021/01/01 07:31:27;;;;;;;1.05;0.80;;;13.80;68.30;;;;;;5051889;28;20025;-74
2021/01/01 07:34:07;;;;;;;0.65;0.60;;;13.80;68.40;;;;;;5033835;28;20116;-73
2021/01/01 07:36:39;;;;;;;1.13;0.70;;;13.80;68.30;;;;;;5026027;28;20053;-74
2021/01/01 07:39:11;;;;;;;0.65;0.50;;;13.80;68.30;;;;;;5044154;28;20521;-74
2021/01/01 07:41:42;;;;;;;0.60;0.60;;;13.80;68.30;;;;;;5051556;28;20025;-74
2021/01/01 07:44:14;;;;;;;0.45;0.45;;;13.80;68.30;;;;;;5051576;28;20481;-74
2021/01/01 07:46:51;;;;;;;0.82;0.60;;;13.80;68.30;;;;;;5032327;28;20112;-74
2021/01/01 07:49:30;;;;;;;1.02;0.70;;;13.80;68.20;;;;;;5048257;28;20051;-75
2021/01/01 07:52:02;;;;;;;0.98;0.70;;;13.80;68.30;;;;;;5050633;28;20139;-75
2021/01/01 07:54:48;;;;;;;0.93;0.73;;;13.80;68.30;;;;;;5052648;28;20033;-75
2021/01/01 07:57:20;;;;;;;0.80;0.65;;;13.80;68.30;;;;;;5032411;28;20024;-74
2021/01/01 07:59:56;;;;;;;0.70;0.60;;;13.80;68.30;;;;;;5033170;28;20171;-74
2021/01/01 08:02:26;;;;;;;1.88;0.70;;;13.80;68.30;;;;;;5053565;28;20033;-74
2021/01/01 08:04:52;;;;;;;0.77;0.60;;;13.80;68.30;;;;;;5033001;28;20112;-74
2021/01/01 08:07:31;;;;;;;1.30;0.60;;;13.80;68.20;;;;;;5050484;28;20098;-74
2021/01/01 08:10:10;;;;;;;;;;;13.80;68.30;;;;;;5045128;28;20041;-74
2021/01/01 08:12:47;;;;;;;0.65;0.57;;;13.80;68.20;;;;;;5048772;28;19921;-75
2021/01/01 08:15:28;;;;;;;0.60;0.60;;;13.80;68.20;;;;;;5044567;28;20463;-74
2021/01/01 08:18:06;;;;;;;2.00;0.73;;;13.80;68.20;;;;;;5051437;28;20058;-74
2021/01/01 08:20:37;;;;;;;0.73;0.70;;;13.80;68.20;;;;;;5050133;28;20025;-74
2021/01/01 08:23:20;;;;;;;1.08;0.90;;;13.80;68.20;;;;;;5033032;28;20025;-74
2021/01/01 08:26:00;;;;;;;0.88;0.80;;;13.80;68.20;;;;;;5049974;28;20052;-74
2021/01/01 08:28:49;;;;;;;1.17;0.52;;;13.80;68.10;;;;;;5053023;28;20469;-74
2021/01/01 08:31:21;;;;;;;0.70;0.50;;;13.80;68.10;;;;;;5048788;28;20122;-74
2021/01/01 08:34:01;;;;;;;1.00;0.60;;;13.80;68.10;;;;;;5036245;28;20120;-74
2021/01/01 08:36:35;;;;;;;0.57;0.57;;;13.80;68.10;;;;;;5030754;28;20391;-73
2021/01/01 08:39:14;;;;;;;0.88;0.70;;;13.80;68.10;;;;;;5051660;28;20083;-74
2021/01/01 08:41:52;;;;;;;0.43;0.43;;;13.80;68.10;;;;;;5047308;28;20082;-74
2021/01/01 08:44:32;;;;;;;2.50;1.00;;;13.80;68.00;;;;;;5048461;28;20059;-74
2021/01/01 08:47:02;;;;;;;1.20;0.70;;;13.80;68.00;;;;;;5031565;28;20148;-74
2021/01/01 08:49:35;;;;;;;1.00;0.80;;;13.80;68.00;;;;;;5054684;28;20021;-74
2021/01/01 08:52:16;;;;;;;0.57;0.57;;;13.80;68.00;;;;;;5037602;28;20033;-75
2021/01/01 08:54:48;;;;;;;0.75;0.70;;;13.80;68.00;;;;;;5036562;28;20033;-73
2021/01/01 08:57:26;;;;;;;0.70;0.68;;;13.80;67.90;;;;;;5055536;28;20025;-74
2021/01/01 09:00:18;;;;;;;1.00;0.75;;;13.80;67.90;;;;;;5054364;28;20017;-76
2021/01/01 09:03:12;;;;;;;0.77;0.63;;;13.80;67.90;;;;;;5052529;28;20497;-74
2021/01/01 09:05:51;;;;;;;0.77;0.60;;;13.80;67.90;;;;;;5036353;28;20032;-75
2021/01/01 09:08:32;;;;;;;0.85;0.60;;;13.90;67.90;;;;;;5048864;28;20029;-74
2021/01/01 09:11:12;;;;;;;1.33;0.70;;;13.90;67.80;;;;;;5052584;28;20017;-74
2021/01/01 09:13:44;;;;;;;0.55;0.55;;;13.90;67.90;;;;;;5051881;28;20024;-74
2021/01/01 09:16:14;;;;;;;0.70;0.50;;;13.80;67.80;;;;;;5051932;28;20033;-74
2021/01/01 09:18:43;;;;;;;0.82;0.60;;;13.80;67.80;;;;;;5037277;28;20104;-74
2021/01/01 09:21:17;;;;;;;0.68;0.65;;;13.90;67.80;;;;;;5051840;28;20059;-73
2021/01/01 09:23:58;;;;;;;0.60;0.50;;;13.90;67.80;;;;;;5054711;28;20040;-74
2021/01/01 09:26:30;;;;;;;1.17;0.65;;;13.90;67.70;;;;;;5030354;28;20386;-73
2021/01/01 09:29:04;;;;;;;1.27;0.90;;;13.90;67.70;;;;;;5052363;28;20029;-76
2021/01/01 09:31:30;;;;;;;0.55;0.52;;;13.90;67.70;;;;;;5053441;28;20029;-73
2021/01/01 09:34:24;;;;;;;1.83;0.70;;;13.90;67.70;;;;;;5035159;28;20029;-74
2021/01/01 09:36:54;;;;;;;0.65;0.47;;;13.90;67.70;;;;;;5033760;28;20054;-73
2021/01/01 09:39:26;;;;;;;0.50;0.50;;;13.90;67.60;;;;;;5052825;28;20039;-74
2021/01/01 09:41:54;;;;;;;0.70;0.60;;;13.90;67.60;;;;;;5038460;28;20532;-74
2021/01/01 09:44:33;;;;;;;;;;;13.90;67.60;;;;;;5053755;28;20037;-74
2021/01/01 09:47:10;;;;;;;0.70;0.60;;;13.90;67.60;;;;;;5053888;28;19909;-73
2021/01/01 09:49:41;;;;;;;0.55;0.55;;;14.00;67.50;;;;;;5034302;28;20108;-74
2021/01/01 09:52:14;;;;;;;0.57;0.57;;;14.00;67.50;;;;;;5052892;28;20044;-75
2021/01/01 09:54:45;;;;;;;1.50;0.77;;;14.00;67.50;;;;;;5053668;28;20047;-75
2021/01/01 09:57:16;;;;;;;0.65;0.60;;;13.90;67.50;;;;;;5051369;28;20032;-75
2021/01/01 09:59:41;;;;;;;0.90;0.63;;;14.00;67.60;;;;;;5033592;28;20340;-74
2021/01/01 10:02:12;;;;;;;0.60;0.60;;;14.00;67.60;;;;;;5034815;28;20036;-76
2021/01/01 10:04:49;;;;;;;0.98;0.60;;;13.90;67.60;;;;;;5050674;28;20028;-75
2021/01/01 10:07:18;;;;;;;0.77;0.77;;;14.00;67.50;;;;;;5033617;28;20052;-74
2021/01/01 10:09:45;;;;;;;0.80;0.80;;;14.00;67.40;;;;;;5052047;28;20036;-74
2021/01/01 10:12:17;;;;;;;0.70;0.57;;;14.00;67.40;;;;;;5051427;28;20029;-76
2021/01/01 10:14:50;;;;;;;0.77;0.70;;;14.00;67.40;;;;;;5053337;28;20033;-73
2021/01/01 10:17:32;;;;;;;0.70;0.60;;;14.00;67.30;;;;;;5053594;28;20028;-74
2021/01/01 10:20:03;;;;;;;0.63;0.45;;;14.00;67.30;;;;;;5032101;28;20107;-74
2021/01/01 10:22:36;;;;;;;1.00;0.65;;;14.10;67.20;;;;;;5049842;28;20493;-74
2021/01/01 10:25:07;;;;;;;0.70;0.60;;;14.10;67.20;;;;;;5052022;28;20028;-73
2021/01/01 10:27:38;;;;;;;0.70;0.60;;;14.10;67.10;;;;;;5034023;28;20034;-73
2021/01/01 10:30:07;;;;;;;0.75;0.50;;;14.10;67.00;;;;;;5056998;28;20150;-75
2021/01/01 10:32:32;;;;;;;0.98;0.75;;;14.10;67.00;;;;;;5050188;28;20055;-73
2021/01/01 10:35:09;;;;;;;0.60;0.60;;;14.20;67.00;;;;;;5035580;28;20470;-73
2021/01/01 10:37:50;;;;;;;1.13;0.73;;;14.10;67.00;;;;;;5051392;28;20382;-74
2021/01/01 10:40:23;;;;;;;1.85;1.10;;;14.10;67.10;;;;;;5049878;28;20025;-74
2021/01/01 10:42:53;;;;;;;3.10;0.95;;;14.10;67.10;;;;;;5051768;28;20037;-76
2021/01/01 10:45:22;;;;;;;9.30;3.53;;;14.20;67.10;;;;;;5045242;28;20029;-74
2021/01/01 10:47:48;;;;;;;5.22;3.30;;;13.90;58.70;;;;;;5033796;28;20158;-75
2021/01/01 10:50:20;;;;;;;6.53;2.95;;;13.80;64.30;;;;;;5053339;28;20021;-74
2021/01/01 10:52:51;;;;;;;7.40;3.05;;;13.90;67.30;;;;;;5036290;28;20029;-74
2021/01/01 10:55:21;;;;;;;8.90;3.40;;;14.00;63.80;;;;;;5048913;28;20104;-71
2021/01/01 10:57:49;;;;;;;12.77;3.78;;;13.90;63.50;;;;;;5048340;28;20163;-72
2021/01/01 11:00:20;;;;;;;;;;;13.90;62.10;;;;;;5033617;28;20118;-72
2021/01/01 11:02:45;;;;;;;10.63;3.90;;;14.10;62.80;;;;;;5036055;28;19952;-72
2021/01/01 11:05:11;;;;;;;7.85;4.15;;;14.10;57.80;;;;;;5052254;28;20110;-73
2021/01/01 11:07:42;;;;;;;19.13;5.40;;;13.90;55.80;;;;;;5032600;28;20602;-74
2021/01/01 11:10:12;;;;;;;7.28;4.03;;;14.00;59.00;;;;;;5027562;28;20451;-74
2021/01/01 11:12:53;;;;;;;10.57;4.70;;;14.00;56.70;;;;;;5032537;28;20481;-73
2021/01/01 12:26:40;;;;;;;4.15;2.20;;;14.80;53.00;;;;;;5026557;28;20032;-74
2021/01/01 12:29:07;;;;;;;4.45;2.50;;;14.80;53.30;;;;;;5010055;28;20116;-74
2021/01/01 12:31:34;;;;;;;3.42;2.35;;;14.80;53.60;;;;;;5030272;28;20040;-76
2021/01/01 12:34:00;;;;;;;3.65;2.47;;;14.80;53.90;;;;;;5029979;28;20040;-74
2021/01/01 12:36:30;;;;;;;3.08;1.95;;;14.80;54.10;;;;;;5015011;28;20042;-74
2021/01/01 12:38:56;;;;;;;2.55;1.50;;;14.80;54.40;;;;;;5011518;28;20574;-74
2021/01/01 12:41:22;;;;;;;3.33;1.95;;;14.80;54.60;;;;;;5014780;28;20104;-74
2021/01/01 12:43:51;;;;;;;3.17;2.00;;;14.80;54.80;;;;;;5026466;28;20029;-75
2021/01/01 12:46:21;;;;;;;2.78;1.52;;;14.80;55.00;;;;;;5029859;28;20032;-74
2021/01/01 12:49:01;;;;;;;3.65;2.13;;;14.80;55.20;;;;;;5010910;28;20026;-74
2021/01/01 12:51:32;;;;;;;5.97;2.38;;;14.80;55.40;;;;;;5024717;28;20083;-74
2021/01/01 12:54:02;;;;;;;3.40;2.10;;;14.80;55.70;;;;;;5013425;28;20029;-74
2021/01/01 12:56:39;;;;;;;2.80;1.90;;;14.80;55.80;;;;;;5010192;28;20108;-74
2021/01/01 12:59:05;;;;;;;3.70;2.13;;;14.80;56.00;;;;;;5007189;28;20124;-73
2021/01/01 13:01:34;;;;;;;4.68;2.17;;;14.80;56.40;;;;;;5028032;28;20100;-75
2021/01/01 13:04:05;;;;;;;3.25;2.00;;;14.80;56.80;;;;;;5026024;28;20370;-75
2021/01/01 13:06:39;;;;;;;7.80;1.95;;;14.80;56.90;;;;;;5030856;28;20045;-74
2021/01/01 13:09:15;;;;;;;3.67;2.35;;;14.80;56.90;;;;;;5047176;28;20504;-74
2021/01/01 13:11:46;;;;;;;3.08;2.10;;;14.80;57.10;;;;;;5032347;28;20500;-74
2021/01/01 13:14:19;;;;;;;6.00;2.05;;;14.80;57.20;;;;;;5048744;28;20471;-74
2021/01/01 13:16:50;;;;;;;3.72;2.17;;;14.80;57.30;;;;;;5046025;28;20120;-73
2021/01/01 13:19:20;;;;;;;6.15;1.80;;;14.80;57.40;;;;;;5045364;28;20715;-73
2021/01/01 13:21:58;;;;;;;3.63;2.20;;;14.80;57.60;;;;;;5051089;28;20021;-75
2021/01/01 13:24:26;;;;;;;;;;;14.80;57.80;;;;;;5044141;28;20057;-74
2021/01/01 13:27:15;;;;;;;3.95;2.05;;;14.80;58.20;;;;;;5044641;28;19909;-74
2021/01/01 13:29:55;;;;;;;6.25;2.08;;;14.80;58.60;;;;;;5031664;28;20125;-74
2021/01/01 13:32:58;;;;;;;;;;;;;;;;;;;;;
2021/01/01 13:35:38;;;;;;;6.00;1.80;;;14.80;59.00;;;;;;5049141;28;20120;-74
2021/01/01 13:38:19;;;;;;;6.10;1.73;;;14.80;59.40;;;;;;5047118;28;20090;-74
2021/01/01 13:41:07;;;;;;;5.40;1.92;;;14.90;59.60;;;;;;5054854;28;20029;-74
2021/01/01 13:43:37;;;;;;;3.90;1.65;;;14.90;59.70;;;;;;5034469;28;20375;-74
2021/01/01 13:46:25;;;;;;;6.85;2.25;;;14.80;59.90;;;;;;5048505;28;20431;-74
2021/01/01 13:49:05;;;;;;;3.47;1.90;;;14.80;60.00;;;;;;5027953;28;20112;-75
2021/01/01 13:51:55;;;;;;;3.45;1.60;;;14.90;60.10;;;;;;5025088;28;20048;-74
2021/01/01 13:54:31;;;;;;;2.58;1.75;;;14.90;60.10;;;;;;5033364;28;20033;-74
2021/01/01 13:57:29;;;;;;;3.20;1.75;;;14.90;60.30;;;;;;5048843;28;20025;-74
2021/01/01 14:00:10;;;;;;;5.05;2.53;;;14.90;60.30;;;;;;5046998;28;20033;-74
2021/01/01 14:02:50;;;;;;;3.30;1.80;;;14.80;60.40;;;;;;5048234;28;20537;-74
2021/01/01 14:05:28;;;;;;;2.90;1.80;;;14.90;60.40;;;;;;5049386;28;20063;-74
2021/01/01 14:07:56;;;;;;;4.90;1.98;;;14.90;60.50;;;;;;5027462;28;20045;-74
2021/01/01 14:10:36;;;;;;;;;;;14.80;60.50;;;;;;5035745;28;20025;-75
2021/01/01 14:13:06;;;;;;;5.97;1.63;;;14.90;60.50;;;;;;5043648;28;20273;-74
2021/01/01 14:15:38;;;;;;;4.15;1.67;;;14.80;60.40;;;;;;5051860;28;20405;-76
2021/01/01 14:18:34;;;;;;;4.20;1.70;;;14.80;60.40;;;;;;5052951;28;20104;-75
2021/01/01 14:21:11;;;;;;;2.38;1.50;;;14.80;60.50;;;;;;5044876;28;20044;-74
2021/01/01 14:23:45;;;;;;;2.95;1.85;;;14.80;60.40;;;;;;5053507;28;20028;-74
2021/01/01 14:26:30;;;;;;;3.58;2.15;;;14.80;60.50;;;;;;5052715;28;20035;-74
2021/01/01 14:29:23;;;;;;;5.50;2.10;;;14.80;60.50;;;;;;5046721;28;20083;-74
2021/01/01 14:32:04;;;;;;;4.40;2.03;;;14.80;60.40;;;;;;5032466;28;20032;-74
2021/01/01 14:34:59;;;;;;;2.55;1.48;;;14.80;60.50;;;;;;5052146;28;20124;-74
2021/01/01 14:37:29;;;;;;;3.60;1.67;;;14.80;60.60;;;;;;5045375;28;20037;-73
2021/01/01 14:40:05;;;;;;;2.55;1.67;;;14.80;60.60;;;;;;5052658;28;20490;-74
2021/01/01 14:42:54;;;;;;;2.33;1.50;;;14.80;60.60;;;;;;5050219;28;20037;-73
2021/01/01 14:45:26;;;;;;;4.88;2.92;;;14.80;60.70;;;;;;5046590;28;20037;-74
2021/01/01 14:47:59;;;;;;;2.33;1.50;;;14.80;60.70;;;;;;5050784;28;20029;-74
2021/01/01 14:50:47;;;;;;;4.35;1.92;;;14.80;60.70;;;;;;5046408;28;20033;-73
2021/01/01 14:53:33;;;;;;;3.30;1.77;;;14.80;60.70;;;;;;5045372;28;20025;-73
2021/01/01 14:56:09;;;;;;;5.68;1.67;;;14.80;60.70;;;;;;5051490;28;20291;-74
2021/01/01 14:58:50;;;;;;;2.65;1.60;;;14.70;60.80;;;;;;5042829;28;20040;-74